M I D A S
Marine Information and Data Acquisition System
Tripno 1879 of the Zeeleeuw from 2010-05-11 05:12:52 to 2010-05-11 15:59:13
Back to CruiseResearch ActivitiesStationsMapUnderway DataData graphs

EquipmentUnitsComments
TimeDGPSUTC
LatitudeDGPSDM.mWGS84
LongitudeDGPSDM.mWGS84
SpeedMeteo Stationm/sRelative wind speed
DirectionMeteo StationdegRelative wind direction
TemperatureMeteo Stationdeg CelciusAir temperature
PressureMeteo StationPaAtmospheric pressure
HumidityMeteo Station%Relative humidity
Missing or incorrect values are displayed as -999
Metereological data collected by the RV Zeeleeuw from 2010-05-11 04:58:16 to 2010-05-11 16:06:18
                                                                                    Next 1000 lines
Time Latitude Longitude Speed Direction Temperature Pressure Humidity
2010-05-11 04:58:25 51°13.662 2°55.956 1.2 259 7.8 101060 32
2010-05-11 04:58:30 51°13.663 2°55.952 0.1 239 7.8 101060 32
2010-05-11 04:58:36 51°13.664 2°55.947 0.8 20 7.8 101060 31
2010-05-11 04:58:40 51°13.665 2°55.944 0.2 242 7.8 101060 31
2010-05-11 04:58:47 51°13.667 2°55.936 0.2 20 7.7 101060 35
2010-05-11 04:58:52 51°13.669 2°55.93 0.1 246 7.7 101060 35
2010-05-11 04:58:58 51°13.671 2°55.922 0.1 23 7.7 101060 31
2010-05-11 04:59:04 51°13.674 2°55.913 -999 252 7.7 101060 31
2010-05-11 04:59:09 51°13.676 2°55.906 -999 252 7.7 101050 32
2010-05-11 04:59:14 51°13.678 2°55.898 -999 39 7.7 101050 32
2010-05-11 04:59:19 51°13.68 2°55.889 -999 25 7.7 101060 32
2010-05-11 04:59:24 51°13.682 2°55.88 -999 35 7.7 101060 32
2010-05-11 04:59:29 51°13.684 2°55.871 -999 23 7.7 101060 32
2010-05-11 04:59:34 51°13.686 2°55.862 0.2 38 7.7 101060 32
2010-05-11 04:59:39 51°13.688 2°55.853 0.1 25 7.8 101050 32
2010-05-11 04:59:44 51°13.69 2°55.844 0.1 255 7.8 101050 32
2010-05-11 04:59:49 51°13.691 2°55.836 0.1 263 7.8 101050 31
2010-05-11 04:59:54 51°13.693 2°55.827 0.1 264 7.8 101050 31
2010-05-11 04:59:59 51°13.694 2°55.818 0.1 254 7.7 101060 32
2010-05-11 05:00:04 51°13.695 2°55.81 -999 252 7.7 101060 32
2010-05-11 05:00:09 51°13.696 2°55.802 -999 23 7.7 101060 32
2010-05-11 05:00:14 51°13.697 2°55.794 0.1 242 7.7 101060 32
2010-05-11 05:00:19 51°13.698 2°55.787 0.1 22 7.7 101060 32
2010-05-11 05:00:24 51°13.699 2°55.779 0.1 335 7.7 101060 32
2010-05-11 05:00:29 51°13.699 2°55.773 0.8 328 7.7 101060 32
2010-05-11 05:00:34 51°13.7 2°55.769 0.9 324 7.7 101060 32
2010-05-11 05:00:38 51°13.7 2°55.766 0.8 334 7.8 101060 32
2010-05-11 05:00:44 51°13.7 2°55.764 2.1 320 7.8 101060 32
2010-05-11 05:00:48 51°13.7 2°55.762 2.4 325 7.8 101060 32
2010-05-11 05:00:53 51°13.7 2°55.76 2.5 330 7.8 101060 32
2010-05-11 05:00:56 51°13.7 2°55.759 2.5 328 7.8 101060 31
2010-05-11 05:01:03 51°13.7 2°55.757 1.6 335 7.8 101060 31
2010-05-11 05:01:08 51°13.7 2°55.755 2.4 332 7.8 101050 31
2010-05-11 05:01:12 51°13.701 2°55.755 2.5 320 7.8 101050 31
2010-05-11 05:01:12 51°13.701 2°55.755 2.5 320 7.8 101050 31
2010-05-11 05:01:24 51°13.701 2°55.755 3.1 337 7.7 101050 31
2010-05-11 05:01:29 51°13.702 2°55.755 2.5 284 7.7 101050 31
2010-05-11 05:01:34 51°13.702 2°55.756 2.4 328 7.7 101060 32
2010-05-11 05:01:39 51°13.703 2°55.756 2.2 281 7.7 101060 32
2010-05-11 05:02:02 51°13.702 2°55.752 2.5 344 7.7 101060 33
2010-05-11 05:02:25 51°13.697 2°55.744 2.7 338 7.7 101060 31
2010-05-11 05:02:31 51°13.698 2°55.743 2.6 332 7.7 101060 31
2010-05-11 05:02:49 51°13.701 2°55.743 2.5 353 7.7 101060 33
2010-05-11 05:02:49 51°13.701 2°55.743 2.5 353 7.7 101060 33
2010-05-11 05:03:03 51°13.704 2°55.742 1.8 352 7.7 101060 33
2010-05-11 05:03:08 51°13.706 2°55.742 1.5 3 7.7 101060 33
2010-05-11 05:03:08 51°13.706 2°55.742 1.5 3 7.7 101060 33
2010-05-11 05:03:20 51°13.713 2°55.738 4 -999 7.7 101050 31
2010-05-11 05:03:42 51°13.733 2°55.723 5.4 345 7.7 101050 31
2010-05-11 05:03:47 51°13.74 2°55.717 6.1 345 7.7 101050 31
2010-05-11 05:03:52 51°13.747 2°55.71 6.8 356 7.7 101050 31
2010-05-11 05:03:57 51°13.755 2°55.702 5.8 347 7.7 101050 33
2010-05-11 05:04:02 51°13.764 2°55.693 6 353 7.7 101050 33
2010-05-11 05:04:07 51°13.774 2°55.685 5.3 356 7.7 101050 32
2010-05-11 05:04:12 51°13.783 2°55.676 5.9 349 7.7 101050 32
2010-05-11 05:04:16 51°13.791 2°55.668 4.9 344 7.7 101050 32
2010-05-11 05:04:21 51°13.802 2°55.659 6.8 351 7.7 101050 32
2010-05-11 05:04:26 51°13.813 2°55.65 6.1 356 7.7 101050 31
2010-05-11 05:04:31 51°13.824 2°55.641 6.7 345 7.7 101050 31
2010-05-11 05:04:36 51°13.835 2°55.632 6.1 348 7.7 101050 31
2010-05-11 05:04:40 51°13.845 2°55.626 7.6 352 7.7 101050 31
2010-05-11 05:04:45 51°13.857 2°55.617 9.6 352 7.8 101050 31
2010-05-11 05:04:51 51°13.872 2°55.608 7.2 345 7.8 101050 31
2010-05-11 05:04:55 51°13.881 2°55.602 7.3 341 7.8 101050 31
2010-05-11 05:05:00 51°13.894 2°55.594 6.1 343 7.8 101050 31
2010-05-11 05:05:06 51°13.91 2°55.586 8.1 342 7.8 101040 32
2010-05-11 05:05:11 51°13.922 2°55.579 7.2 349 7.8 101040 32
2010-05-11 05:05:15 51°13.932 2°55.573 8.2 344 7.8 101030 33
2010-05-11 05:05:20 51°13.945 2°55.565 10.1 347 7.8 101030 33
2010-05-11 05:05:26 51°13.96 2°55.554 9 351 7.8 101040 32
2010-05-11 05:05:31 51°13.973 2°55.545 8.1 350 7.8 101040 32
2010-05-11 05:05:35 51°13.983 2°55.537 7.5 353 7.8 101050 33
2010-05-11 05:05:40 51°13.995 2°55.527 6.4 346 7.8 101050 33
2010-05-11 05:05:45 51°14.007 2°55.517 6.6 346 7.8 101040 33
2010-05-11 05:05:51 51°14.022 2°55.505 8.6 351 7.8 101040 33
2010-05-11 05:05:56 51°14.035 2°55.495 8.8 352 7.8 101030 32
2010-05-11 05:06:00 51°14.044 2°55.487 9 348 7.8 101030 32
2010-05-11 05:06:04 51°14.054 2°55.479 8.1 346 7.9 101040 31
2010-05-11 05:06:11 51°14.071 2°55.465 8.8 348 7.9 101040 31
2010-05-11 05:06:16 51°14.083 2°55.456 9.7 350 7.8 101040 33
2010-05-11 05:06:20 51°14.093 2°55.448 8.5 341 7.8 101040 33
2010-05-11 05:06:25 51°14.105 2°55.438 7.6 349 7.8 101040 32
2010-05-11 05:06:30 51°14.117 2°55.428 9.5 348 7.8 101040 32
2010-05-11 05:06:36 51°14.132 2°55.415 9.2 350 7.8 101030 33
2010-05-11 05:06:40 51°14.141 2°55.407 10 352 7.8 101030 33
2010-05-11 05:06:45 51°14.153 2°55.396 9.3 355 7.8 101030 32
2010-05-11 05:06:51 51°14.168 2°55.383 11.2 348 7.8 101030 32
2010-05-11 05:06:56 51°14.18 2°55.373 9.1 349 7.8 101040 33
2010-05-11 05:07:00 51°14.189 2°55.365 6.3 347 7.8 101040 33
2010-05-11 05:07:05 51°14.202 2°55.356 7.1 349 7.8 101030 33
2010-05-11 05:07:11 51°14.216 2°55.344 11.8 349 7.8 101030 33
2010-05-11 05:07:16 51°14.229 2°55.334 13.4 351 7.8 101030 33
2010-05-11 05:07:20 51°14.238 2°55.327 13 353 7.8 101030 33
2010-05-11 05:07:25 51°14.251 2°55.318 11.9 351 7.8 101040 34
2010-05-11 05:07:31 51°14.266 2°55.307 10.8 350 7.8 101040 34
2010-05-11 05:07:36 51°14.278 2°55.298 9.6 350 7.9 101040 33
2010-05-11 05:07:40 51°14.288 2°55.291 11 356 7.9 101040 33
2010-05-11 05:07:45 51°14.3 2°55.281 11.1 354 7.9 101020 33
2010-05-11 05:07:51 51°14.315 2°55.27 13.6 353 7.9 101020 33
2010-05-11 05:07:56 51°14.328 2°55.26 13 353 7.9 101020 33
2010-05-11 05:08:00 51°14.337 2°55.252 12.9 358 7.9 101020 33
2010-05-11 05:08:04 51°14.347 2°55.244 13.1 352 7.9 101020 34
2010-05-11 05:08:11 51°14.364 2°55.229 12.9 355 7.9 101020 34
2010-05-11 05:08:16 51°14.376 2°55.217 12.8 357 7.9 101010 33
2010-05-11 05:08:20 51°14.385 2°55.207 13.5 357 7.9 101010 33
2010-05-11 05:08:24 51°14.394 2°55.196 12.8 356 7.9 101010 32
2010-05-11 05:08:30 51°14.408 2°55.179 12.2 360 7.9 101010 32
2010-05-11 05:08:36 51°14.421 2°55.161 11.9 356 7.9 101010 33
2010-05-11 05:08:40 51°14.43 2°55.149 12.3 359 7.9 101010 33
2010-05-11 05:08:45 51°14.442 2°55.133 13.4 359 7.8 101010 32
2010-05-11 05:08:51 51°14.455 2°55.113 14.2 359 7.8 101010 32
2010-05-11 05:08:56 51°14.467 2°55.097 13 357 7.8 101010 32
2010-05-11 05:09:01 51°14.479 2°55.08 15.1 356 7.8 101010 32
2010-05-11 05:09:05 51°14.489 2°55.067 15.8 356 7.8 101010 33
2010-05-11 05:09:10 51°14.501 2°55.05 13.7 357 7.8 101010 33
2010-05-11 05:09:15 51°14.512 2°55.032 12 357 7.8 101010 33
2010-05-11 05:09:21 51°14.526 2°55.008 13.8 358 7.8 101010 33
2010-05-11 05:09:25 51°14.534 2°54.991 13.8 357 7.9 101010 33
2010-05-11 05:09:31 51°14.547 2°54.964 13.2 359 7.9 101010 33
2010-05-11 05:09:35 51°14.556 2°54.946 12.3 358 7.8 100990 33
2010-05-11 05:09:41 51°14.569 2°54.92 12.6 358 7.8 100990 33
2010-05-11 05:09:45 51°14.578 2°54.902 13 358 7.8 101000 33
2010-05-11 05:09:50 51°14.59 2°54.88 14.1 360 7.8 101000 33
2010-05-11 05:09:55 51°14.602 2°54.858 11.9 357 7.8 101000 33
2010-05-11 05:10:01 51°14.617 2°54.833 10.9 354 7.8 101000 33
2010-05-11 05:10:05 51°14.628 2°54.817 11.5 354 7.8 101000 33
2010-05-11 05:10:11 51°14.644 2°54.794 15.9 354 7.8 101000 33
2010-05-11 05:10:16 51°14.658 2°54.777 15.6 355 7.8 101000 33
2010-05-11 05:10:21 51°14.672 2°54.759 14.5 351 7.8 101000 33
2010-05-11 05:10:25 51°14.684 2°54.747 15.3 351 7.8 101000 33
2010-05-11 05:10:30 51°14.698 2°54.732 15.8 350 7.8 101000 33
2010-05-11 05:10:35 51°14.713 2°54.717 15.3 351 7.8 101020 33
2010-05-11 05:10:41 51°14.732 2°54.7 14.7 348 7.8 101020 33
2010-05-11 05:10:45 51°14.744 2°54.689 14.2 352 7.8 101010 33
2010-05-11 05:10:51 51°14.763 2°54.674 15.4 348 7.8 101010 33
2010-05-11 05:10:56 51°14.778 2°54.66 14.9 347 7.8 101010 32
2010-05-11 05:11:01 51°14.794 2°54.648 15.5 348 7.8 101010 32
2010-05-11 05:11:05 51°14.806 2°54.637 15.4 350 7.8 101020 33
2010-05-11 05:11:10 51°14.822 2°54.625 14.5 347 7.8 101020 33
2010-05-11 05:11:15 51°14.838 2°54.612 16 348 7.8 101020 33
2010-05-11 05:11:21 51°14.857 2°54.596 16.7 347 7.8 101020 33
2010-05-11 05:11:25 51°14.87 2°54.585 16.6 347 7.8 101020 32
2010-05-11 05:11:31 51°14.89 2°54.568 15.2 348 7.8 101020 32
2010-05-11 05:11:36 51°14.906 2°54.554 15.9 350 7.8 101020 33
2010-05-11 05:11:40 51°14.918 2°54.543 15.3 350 7.8 101020 33
2010-05-11 05:11:45 51°14.934 2°54.529 14.3 351 7.7 101010 33
2010-05-11 05:11:50 51°14.949 2°54.516 13.6 347 7.7 101010 33
2010-05-11 05:11:55 51°14.964 2°54.502 13.6 347 7.7 101010 33
2010-05-11 05:12:01 51°14.983 2°54.486 16.4 348 7.7 101010 33
2010-05-11 05:12:05 51°14.995 2°54.474 15.3 348 7.7 101020 33
2010-05-11 05:12:11 51°15.013 2°54.457 15.5 351 7.7 101020 33
2010-05-11 05:12:16 51°15.029 2°54.443 16.3 348 7.7 101020 33
2010-05-11 05:12:21 51°15.043 2°54.427 16.6 350 7.7 101020 33
2010-05-11 05:12:25 51°15.055 2°54.414 15.2 349 7.7 101010 33
2010-05-11 05:12:31 51°15.072 2°54.394 16.5 350 7.7 101010 33
2010-05-11 05:12:35 51°15.084 2°54.381 14.9 349 7.7 101020 33
2010-05-11 05:12:41 51°15.101 2°54.361 14.1 349 7.7 101020 33
2010-05-11 05:12:45 51°15.113 2°54.347 14.7 350 7.7 101020 32
2010-05-11 05:12:50 51°15.128 2°54.331 13.2 350 7.7 101020 32
2010-05-11 05:12:56 51°15.145 2°54.311 14 348 7.7 101010 34
2010-05-11 05:13:01 51°15.16 2°54.295 13.6 349 7.7 101010 34
2010-05-11 05:13:06 51°15.175 2°54.278 15.1 349 7.7 101030 33
2010-05-11 05:13:10 51°15.186 2°54.264 14.3 350 7.7 101030 33
2010-05-11 05:13:16 51°15.204 2°54.245 16.5 349 7.7 101010 33
2010-05-11 05:13:21 51°15.219 2°54.228 15.5 351 7.7 101010 33
2010-05-11 05:13:26 51°15.234 2°54.211 16.4 351 7.7 101020 32
2010-05-11 05:13:30 51°15.245 2°54.198 13 350 7.7 101020 32
2010-05-11 05:13:34 51°15.257 2°54.184 13.7 348 7.6 101020 33
2010-05-11 05:13:40 51°15.274 2°54.162 14.4 353 7.6 101020 33
2010-05-11 05:13:46 51°15.29 2°54.138 12 354 7.6 101020 33
2010-05-11 05:13:50 51°15.301 2°54.123 13.8 351 7.6 101020 33
2010-05-11 05:13:55 51°15.314 2°54.103 14 354 7.7 101010 33
2010-05-11 05:14:00 51°15.328 2°54.083 14.6 353 7.7 101010 33
2010-05-11 05:14:06 51°15.344 2°54.059 14.8 353 7.6 101010 32
2010-05-11 05:14:10 51°15.354 2°54.042 12.5 352 7.6 101010 32
2010-05-11 05:14:14 51°15.365 2°54.026 12.8 353 7.7 101020 33
2010-05-11 05:14:20 51°15.381 2°54.001 14.9 353 7.7 101020 33
2010-05-11 05:14:26 51°15.397 2°53.977 14.2 353 7.7 101020 33
2010-05-11 05:14:30 51°15.408 2°53.961 16.1 354 7.7 101020 33
2010-05-11 05:14:36 51°15.424 2°53.937 13.2 354 7.7 101010 33
2010-05-11 05:14:41 51°15.437 2°53.917 13.8 355 7.7 101010 33
2010-05-11 05:14:45 51°15.448 2°53.901 12.1 354 7.7 101010 33
2010-05-11 05:14:50 51°15.462 2°53.881 14 351 7.7 101010 33
2010-05-11 05:14:55 51°15.476 2°53.862 15.2 351 7.7 101010 32
2010-05-11 05:15:01 51°15.492 2°53.838 13.6 353 7.7 101010 32
2010-05-11 05:15:06 51°15.506 2°53.819 14.9 354 7.6 101020 32
2010-05-11 05:15:10 51°15.516 2°53.802 13.3 356 7.6 101020 32
2010-05-11 05:15:16 51°15.532 2°53.778 13.5 352 7.7 101010 34
2010-05-11 05:15:21 51°15.546 2°53.758 13.7 354 7.7 101010 34
2010-05-11 05:15:26 51°15.559 2°53.738 13.4 351 7.6 101020 33
2010-05-11 05:15:30 51°15.57 2°53.722 14.4 352 7.6 101020 33
2010-05-11 05:15:35 51°15.583 2°53.702 14 352 7.6 101020 33
2010-05-11 05:15:41 51°15.6 2°53.679 13 352 7.6 101020 33
2010-05-11 05:15:46 51°15.613 2°53.659 15.4 352 7.6 101020 33
2010-05-11 05:15:50 51°15.624 2°53.643 14.4 352 7.6 101020 33
2010-05-11 05:15:54 51°15.635 2°53.628 13.3 348 7.6 101020 33
2010-05-11 05:16:01 51°15.654 2°53.6 12.2 352 7.6 101020 33
2010-05-11 05:16:06 51°15.668 2°53.58 14.5 352 7.6 101020 32
2010-05-11 05:16:10 51°15.678 2°53.564 14.7 353 7.6 101020 32
2010-05-11 05:16:14 51°15.689 2°53.547 13.8 353 7.6 101010 33
2010-05-11 05:16:20 51°15.705 2°53.523 14 354 7.6 101010 33
2010-05-11 05:16:26 51°15.721 2°53.5 13.9 355 7.6 101010 33
2010-05-11 05:16:30 51°15.732 2°53.485 13.8 352 7.6 101010 33
2010-05-11 05:16:36 51°15.75 2°53.464 12.8 350 7.6 101020 32
2010-05-11 05:16:41 51°15.765 2°53.447 13.9 349 7.6 101020 32
2010-05-11 05:16:45 51°15.777 2°53.435 13.6 349 7.5 101010 32
2010-05-11 05:16:50 51°15.792 2°53.419 13.7 351 7.5 101010 32
2010-05-11 05:16:55 51°15.808 2°53.406 15.5 350 7.5 101020 32
2010-05-11 05:17:01 51°15.827 2°53.39 13.8 347 7.5 101020 32
2010-05-11 05:17:06 51°15.843 2°53.378 13.3 348 7.5 101040 33
2010-05-11 05:17:10 51°15.855 2°53.369 14.1 346 7.5 101040 33
2010-05-11 05:17:16 51°15.875 2°53.355 12.7 349 7.5 101010 33
2010-05-11 05:17:21 51°15.891 2°53.343 15.6 348 7.5 101010 33
2010-05-11 05:17:26 51°15.907 2°53.333 15.2 349 7.6 101020 33
2010-05-11 05:17:30 51°15.92 2°53.325 13.5 347 7.6 101020 33
2010-05-11 05:17:36 51°15.94 2°53.314 15.1 346 7.6 101020 32
2010-05-11 05:17:41 51°15.957 2°53.304 12.7 342 7.6 101020 32
2010-05-11 05:17:46 51°15.973 2°53.295 12.8 343 7.6 101020 32
2010-05-11 05:17:50 51°15.986 2°53.288 15.6 344 7.6 101020 32
2010-05-11 05:17:55 51°16.002 2°53.277 16.1 343 7.6 101010 33
2010-05-11 05:18:01 51°16.021 2°53.266 14.8 344 7.6 101010 33
2010-05-11 05:18:06 51°16.038 2°53.256 14.9 343 7.6 101020 33
2010-05-11 05:18:10 51°16.05 2°53.248 15.3 344 7.6 101020 33
2010-05-11 05:18:15 51°16.067 2°53.239 14.3 346 7.6 101030 33
2010-05-11 05:18:21 51°16.087 2°53.227 15.4 346 7.6 101030 33
2010-05-11 05:18:26 51°16.103 2°53.217 13.9 345 7.6 101030 32
2010-05-11 05:18:30 51°16.116 2°53.208 14.6 347 7.6 101030 32
2010-05-11 05:18:34 51°16.128 2°53.2 15.5 346 7.6 101030 32
2010-05-11 05:18:40 51°16.148 2°53.188 15.8 344 7.6 101030 32
2010-05-11 05:18:46 51°16.167 2°53.176 15.4 345 7.6 101030 32
2010-05-11 05:18:50 51°16.18 2°53.167 14.5 347 7.6 101030 32
2010-05-11 05:18:55 51°16.196 2°53.157 15.5 349 7.5 101020 32
2010-05-11 05:19:00 51°16.212 2°53.146 13.2 346 7.5 101020 32
2010-05-11 05:19:06 51°16.231 2°53.133 13.9 343 7.6 101020 32
2010-05-11 05:19:10 51°16.244 2°53.124 13.7 344 7.6 101020 32
2010-05-11 05:19:15 51°16.26 2°53.112 14 347 7.5 101030 32
2010-05-11 05:19:21 51°16.279 2°53.1 11.7 346 7.5 101030 32
2010-05-11 05:19:26 51°16.295 2°53.089 13.3 345 7.5 101030 31
2010-05-11 05:19:30 51°16.308 2°53.081 13.9 346 7.5 101030 31
2010-05-11 05:19:36 51°16.328 2°53.069 12.8 346 7.5 101020 32
2010-05-11 05:19:41 51°16.344 2°53.06 14.5 347 7.5 101020 32
2010-05-11 05:19:46 51°16.36 2°53.051 15.9 347 7.5 101030 32
2010-05-11 05:19:50 51°16.373 2°53.042 13.9 351 7.5 101030 32
2010-05-11 05:19:56 51°16.392 2°53.031 13.4 349 7.6 101030 33
2010-05-11 05:20:01 51°16.409 2°53.021 13.1 347 7.6 101030 33
2010-05-11 05:20:06 51°16.425 2°53.012 12.6 347 7.6 101030 32
2010-05-11 05:20:10 51°16.439 2°53.004 13.8 348 7.6 101030 32
2010-05-11 05:20:15 51°16.455 2°52.994 12.9 348 7.6 101040 32
2010-05-11 05:20:21 51°16.475 2°52.982 14.5 347 7.6 101040 32
2010-05-11 05:20:26 51°16.491 2°52.972 14.8 349 7.6 101030 33
2010-05-11 05:20:30 51°16.504 2°52.964 13.3 347 7.6 101030 33
2010-05-11 05:20:35 51°16.521 2°52.953 11.7 345 7.6 101040 31
2010-05-11 05:20:40 51°16.537 2°52.943 13.6 344 7.6 101040 31
2010-05-11 05:20:46 51°16.557 2°52.931 13.8 346 7.6 101030 33
2010-05-11 05:20:50 51°16.57 2°52.923 13.2 346 7.6 101030 33
2010-05-11 05:20:55 51°16.586 2°52.913 13.1 348 7.6 101020 32
2010-05-11 05:21:00 51°16.602 2°52.903 12.2 347 7.6 101020 32
2010-05-11 05:21:06 51°16.622 2°52.89 14.8 342 7.6 101020 32
2010-05-11 05:21:10 51°16.635 2°52.882 14.7 344 7.6 101020 32
2010-05-11 05:21:15 51°16.651 2°52.872 14.5 345 7.6 101020 31
2010-05-11 05:21:20 51°16.667 2°52.862 13.1 343 7.6 101020 31
2010-05-11 05:21:25 51°16.684 2°52.851 14 342 7.6 101040 32
2010-05-11 05:21:30 51°16.7 2°52.841 15.8 345 7.6 101040 32
2010-05-11 05:21:35 51°16.716 2°52.831 15.2 344 7.6 101030 31
2010-05-11 05:21:40 51°16.732 2°52.821 15.9 346 7.6 101030 31
2010-05-11 05:21:45 51°16.748 2°52.811 13.8 346 7.6 101040 32
2010-05-11 05:21:50 51°16.764 2°52.8 15 346 7.6 101040 32
2010-05-11 05:21:54 51°16.777 2°52.792 13.3 346 7.6 101020 32
2010-05-11 05:22:00 51°16.796 2°52.78 12.9 349 7.6 101020 32
2010-05-11 05:22:06 51°16.815 2°52.768 12.1 346 7.6 101030 31
2010-05-11 05:22:10 51°16.827 2°52.759 11.5 346 7.6 101030 31
2010-05-11 05:22:16 51°16.846 2°52.747 11.6 347 7.6 101030 31
2010-05-11 05:22:20 51°16.859 2°52.739 13.6 346 7.6 101030 31
2010-05-11 05:22:26 51°16.878 2°52.727 15 347 7.5 101030 32
2010-05-11 05:22:30 51°16.89 2°52.719 12.8 347 7.5 101030 32
2010-05-11 05:22:34 51°16.903 2°52.711 12.1 344 7.6 101020 32
2010-05-11 05:22:40 51°16.922 2°52.698 13.7 347 7.6 101020 32
2010-05-11 05:22:46 51°16.941 2°52.687 14.9 347 7.6 101040 33
2010-05-11 05:22:50 51°16.954 2°52.678 16.1 346 7.6 101040 33
2010-05-11 05:22:54 51°16.966 2°52.67 14.3 344 7.6 101030 32
2010-05-11 05:23:00 51°16.985 2°52.657 13.7 347 7.6 101030 32
2010-05-11 05:23:06 51°17.004 2°52.644 14.1 347 7.6 101030 32
2010-05-11 05:23:10 51°17.017 2°52.636 14.4 349 7.6 101030 32
2010-05-11 05:23:14 51°17.03 2°52.627 15.7 348 7.5 101020 32
2010-05-11 05:23:20 51°17.049 2°52.615 13.7 346 7.5 101020 32
2010-05-11 05:23:25 51°17.065 2°52.605 13.9 345 7.5 101040 32
2010-05-11 05:23:30 51°17.081 2°52.595 13.8 343 7.5 101040 32
2010-05-11 05:23:34 51°17.094 2°52.587 12.6 345 7.5 101030 33
2010-05-11 05:23:40 51°17.113 2°52.575 12.8 346 7.5 101030 33
2010-05-11 05:23:45 51°17.129 2°52.565 12.9 346 7.5 101020 32
2010-05-11 05:23:50 51°17.145 2°52.555 12.1 346 7.5 101020 32
2010-05-11 05:23:54 51°17.157 2°52.546 12.6 347 7.6 101020 32
2010-05-11 05:24:00 51°17.176 2°52.533 12.8 348 7.6 101020 32
2010-05-11 05:24:05 51°17.192 2°52.522 11.9 348 7.6 101020 32
2010-05-11 05:24:10 51°17.208 2°52.512 12.4 346 7.6 101020 32
2010-05-11 05:24:14 51°17.221 2°52.503 13.6 346 7.6 101040 31
2010-05-11 05:24:20 51°17.24 2°52.491 14.9 342 7.6 101040 31
2010-05-11 05:24:26 51°17.26 2°52.481 12.6 343 7.5 101030 33
2010-05-11 05:24:30 51°17.273 2°52.477 11.9 341 7.5 101030 33
2010-05-11 05:24:34 51°17.287 2°52.471 11.5 340 7.6 101040 33
2010-05-11 05:24:40 51°17.307 2°52.466 15.8 341 7.6 101040 33
2010-05-11 05:24:46 51°17.327 2°52.461 14.3 341 7.6 101030 32
2010-05-11 05:24:50 51°17.34 2°52.459 14.8 340 7.6 101030 32
2010-05-11 05:24:54 51°17.354 2°52.457 13.2 342 7.6 101030 32
2010-05-11 05:25:00 51°17.374 2°52.454 12.6 341 7.6 101030 32
2010-05-11 05:25:06 51°17.394 2°52.451 13.5 341 7.6 101030 32
2010-05-11 05:25:10 51°17.407 2°52.451 14 342 7.6 101030 32
2010-05-11 05:25:14 51°17.421 2°52.449 13.6 340 7.6 101030 32
2010-05-11 05:25:20 51°17.441 2°52.449 12.9 342 7.6 101030 32
2010-05-11 05:25:26 51°17.461 2°52.447 14 340 7.6 101040 32
2010-05-11 05:25:30 51°17.474 2°52.446 14.1 340 7.6 101040 32
2010-05-11 05:25:34 51°17.487 2°52.445 14.5 341 7.6 101040 32
2010-05-11 05:25:40 51°17.508 2°52.444 14 339 7.6 101040 32
2010-05-11 05:25:46 51°17.528 2°52.443 12.3 341 7.6 101040 32
2010-05-11 05:25:50 51°17.541 2°52.442 14.5 340 7.6 101040 32
2010-05-11 05:25:54 51°17.554 2°52.441 14.2 342 7.6 101030 32
2010-05-11 05:26:00 51°17.574 2°52.439 13.5 340 7.6 101030 32
2010-05-11 05:26:05 51°17.591 2°52.439 12.2 340 7.6 101030 31
2010-05-11 05:26:10 51°17.608 2°52.439 12.6 340 7.6 101030 31
2010-05-11 05:26:14 51°17.621 2°52.44 12.6 341 7.6 101030 32
2010-05-11 05:26:20 51°17.641 2°52.442 14.8 340 7.6 101030 32
2010-05-11 05:26:26 51°17.661 2°52.446 12.6 340 7.6 101040 32
2010-05-11 05:26:30 51°17.674 2°52.447 13.6 340 7.6 101040 32
2010-05-11 05:26:34 51°17.687 2°52.451 13.9 339 7.6 101050 32
2010-05-11 05:26:40 51°17.707 2°52.456 12.8 337 7.6 101050 32
2010-05-11 05:26:46 51°17.726 2°52.463 13.7 336 7.6 101040 32
2010-05-11 05:26:50 51°17.739 2°52.467 14.4 336 7.6 101040 32
2010-05-11 05:26:54 51°17.752 2°52.472 13.9 336 7.6 101020 32
2010-05-11 05:27:00 51°17.771 2°52.479 14.3 337 7.6 101020 32
2010-05-11 05:27:06 51°17.79 2°52.487 13.8 337 7.7 101040 32
2010-05-11 05:27:10 51°17.803 2°52.491 13.8 338 7.7 101040 32
2010-05-11 05:27:14 51°17.816 2°52.496 14.6 337 7.7 101040 33
2010-05-11 05:27:20 51°17.835 2°52.503 13.9 339 7.7 101040 33
2010-05-11 05:27:26 51°17.855 2°52.511 14.1 338 7.6 101030 31
2010-05-11 05:27:30 51°17.868 2°52.515 14.5 339 7.6 101030 31
2010-05-11 05:27:34 51°17.881 2°52.52 16.1 339 7.6 101030 32
2010-05-11 05:27:40 51°17.9 2°52.527 13.5 334 7.6 101030 32
2010-05-11 05:27:45 51°17.916 2°52.535 14.7 337 7.6 101020 32
2010-05-11 05:27:50 51°17.932 2°52.542 14.1 333 7.6 101020 32
2010-05-11 05:27:54 51°17.945 2°52.548 14.3 332 7.6 101040 31
2010-05-11 05:28:00 51°17.963 2°52.56 13.5 332 7.6 101040 31
2010-05-11 05:28:05 51°17.978 2°52.569 13.1 333 7.6 101030 32
2010-05-11 05:28:10 51°17.993 2°52.58 13 331 7.6 101030 32
2010-05-11 05:28:14 51°18.005 2°52.588 12.7 330 7.7 101030 33
2010-05-11 05:28:20 51°18.022 2°52.602 13.8 332 7.7 101030 33
2010-05-11 05:28:25 51°18.037 2°52.615 14.6 332 7.6 101040 32
2010-05-11 05:28:30 51°18.051 2°52.629 14.1 329 7.6 101040 32
2010-05-11 05:28:34 51°18.062 2°52.64 14.1 329 7.6 101030 32
2010-05-11 05:28:40 51°18.078 2°52.659 13.4 329 7.6 101030 32
2010-05-11 05:28:46 51°18.093 2°52.679 14.2 332 7.6 101050 32
2010-05-11 05:28:50 51°18.103 2°52.692 13.3 328 7.6 101050 32
2010-05-11 05:28:54 51°18.113 2°52.706 14 329 7.6 101040 32
2010-05-11 05:29:00 51°18.127 2°52.727 14.1 330 7.6 101040 32
2010-05-11 05:29:06 51°18.142 2°52.748 15.2 329 7.6 101050 32
2010-05-11 05:29:10 51°18.152 2°52.763 12.4 328 7.6 101050 32
2010-05-11 05:29:14 51°18.161 2°52.778 15.3 329 7.6 101030 31
2010-05-11 05:29:20 51°18.175 2°52.8 14.7 327 7.6 101030 31
2010-05-11 05:29:26 51°18.188 2°52.824 15 328 7.7 101020 32
2010-05-11 05:29:30 51°18.197 2°52.838 16 327 7.7 101020 32
2010-05-11 05:29:34 51°18.206 2°52.854 15.2 328 7.7 101040 32
2010-05-11 05:29:40 51°18.219 2°52.878 15 328 7.7 101040 32
2010-05-11 05:29:46 51°18.232 2°52.902 15.2 328 7.7 101030 33
2010-05-11 05:29:50 51°18.24 2°52.917 14.9 328 7.7 101030 33
2010-05-11 05:29:54 51°18.249 2°52.933 14.6 327 7.7 101010 32
2010-05-11 05:30:00 51°18.262 2°52.956 14.6 326 7.7 101010 32
2010-05-11 05:30:06 51°18.275 2°52.981 14.6 328 7.7 101020 31
2010-05-11 05:30:10 51°18.283 2°52.997 13.9 328 7.7 101020 31
2010-05-11 05:30:14 51°18.291 2°53.014 14.1 327 7.7 101020 32
2010-05-11 05:30:20 51°18.303 2°53.038 14.3 328 7.7 101020 32
2010-05-11 05:30:25 51°18.312 2°53.059 14.6 328 7.7 101010 32
2010-05-11 05:30:30 51°18.322 2°53.08 15.6 325 7.7 101010 32
2010-05-11 05:30:34 51°18.33 2°53.097 15.4 325 7.7 101030 33
2010-05-11 05:30:40 51°18.341 2°53.123 15.7 325 7.7 101030 33
2010-05-11 05:30:45 51°18.35 2°53.145 15.4 323 7.7 101030 32
2010-05-11 05:30:50 51°18.359 2°53.167 15.3 324 7.7 101030 32
2010-05-11 05:30:54 51°18.366 2°53.184 14.2 325 7.7 101020 32
2010-05-11 05:31:00 51°18.376 2°53.212 13.8 323 7.7 101020 32
2010-05-11 05:31:06 51°18.387 2°53.238 13.8 324 7.7 101030 33
2010-05-11 05:31:10 51°18.394 2°53.256 14.3 323 7.7 101030 33
2010-05-11 05:31:14 51°18.401 2°53.274 14.4 323 7.7 101020 33
2010-05-11 05:31:20 51°18.411 2°53.301 13.3 323 7.7 101020 33
2010-05-11 05:31:26 51°18.421 2°53.328 13.7 324 7.7 101020 32
2010-05-11 05:31:30 51°18.428 2°53.346 12.2 326 7.7 101020 32
2010-05-11 05:31:34 51°18.434 2°53.364 12.7 322 7.6 101020 32
2010-05-11 05:31:40 51°18.445 2°53.39 13 323 7.6 101020 32
2010-05-11 05:31:46 51°18.455 2°53.417 13.1 324 7.6 101020 33
2010-05-11 05:31:50 51°18.462 2°53.435 12.1 324 7.6 101020 33
2010-05-11 05:31:54 51°18.47 2°53.453 13.1 323 7.7 101010 33
2010-05-11 05:32:00 51°18.48 2°53.48 13.5 322 7.7 101010 33
2010-05-11 05:32:06 51°18.491 2°53.506 14.1 322 7.7 101030 32
2010-05-11 05:32:10 51°18.498 2°53.524 13.9 321 7.7 101030 32
2010-05-11 05:32:14 51°18.505 2°53.541 13.2 323 7.7 101020 33
2010-05-11 05:32:20 51°18.515 2°53.568 13.1 324 7.7 101020 33
2010-05-11 05:32:25 51°18.524 2°53.59 11.3 324 7.7 101020 32
2010-05-11 05:32:30 51°18.532 2°53.613 12.6 325 7.7 101020 32
2010-05-11 05:32:34 51°18.54 2°53.631 13.5 323 7.6 101020 33
2010-05-11 05:32:40 51°18.55 2°53.657 11.9 323 7.6 101020 33
2010-05-11 05:32:45 51°18.559 2°53.679 13.3 323 7.6 101030 31
2010-05-11 05:32:50 51°18.568 2°53.702 11 325 7.6 101030 31
2010-05-11 05:32:54 51°18.575 2°53.719 13 326 7.6 101030 33
2010-05-11 05:33:00 51°18.586 2°53.746 12.1 326 7.6 101030 33
2010-05-11 05:33:06 51°18.597 2°53.772 12.5 327 7.7 101020 33
2010-05-11 05:33:10 51°18.604 2°53.79 14.1 325 7.7 101020 33
2010-05-11 05:33:14 51°18.611 2°53.808 13.8 326 7.7 101040 32
2010-05-11 05:33:20 51°18.622 2°53.834 11.6 330 7.7 101040 32
2010-05-11 05:33:26 51°18.633 2°53.861 12.4 328 7.7 101040 32
2010-05-11 05:33:30 51°18.64 2°53.879 12.5 327 7.7 101040 32
2010-05-11 05:33:34 51°18.648 2°53.896 13 327 7.7 101050 32
2010-05-11 05:33:40 51°18.658 2°53.922 13.1 327 7.7 101050 32
2010-05-11 05:33:46 51°18.669 2°53.949 13.1 327 7.6 101030 33
2010-05-11 05:33:50 51°18.677 2°53.966 12.9 327 7.6 101030 33
2010-05-11 05:33:54 51°18.684 2°53.983 12.7 327 7.6 101040 33
2010-05-11 05:34:01 51°18.697 2°54.015 12.3 325 7.6 101040 33
2010-05-11 05:34:06 51°18.706 2°54.037 13.2 328 7.6 101030 32
2010-05-11 05:34:10 51°18.713 2°54.054 12.7 326 7.6 101030 32
2010-05-11 05:34:14 51°18.721 2°54.072 11.6 327 7.6 101040 33
2010-05-11 05:34:20 51°18.731 2°54.098 13 326 7.6 101040 33
2010-05-11 05:34:26 51°18.743 2°54.124 12.5 328 7.6 101030 33
2010-05-11 05:34:30 51°18.75 2°54.141 10.9 325 7.6 101030 33
2010-05-11 05:34:34 51°18.757 2°54.159 13.1 326 7.5 101020 32
2010-05-11 05:34:40 51°18.768 2°54.185 13.6 327 7.5 101020 32
2010-05-11 05:34:46 51°18.779 2°54.211 12.9 325 7.6 101040 33
2010-05-11 05:34:50 51°18.786 2°54.229 12.1 325 7.6 101040 33
2010-05-11 05:34:54 51°18.794 2°54.247 12.2 325 7.6 101040 33
2010-05-11 05:35:00 51°18.805 2°54.273 13 325 7.6 101040 33
2010-05-11 05:35:05 51°18.814 2°54.295 11.2 326 7.6 101040 33
2010-05-11 05:35:10 51°18.823 2°54.316 12.7 325 7.6 101040 33
2010-05-11 05:35:14 51°18.831 2°54.334 11.7 325 7.6 101030 32
2010-05-11 05:35:20 51°18.842 2°54.36 13.1 325 7.6 101030 32
2010-05-11 05:35:26 51°18.853 2°54.386 11.4 324 7.6 101030 30
2010-05-11 05:35:30 51°18.86 2°54.404 12.7 323 7.6 101030 30
2010-05-11 05:35:34 51°18.867 2°54.422 12.7 324 7.6 101020 33
2010-05-11 05:35:40 51°18.879 2°54.447 11.8 324 7.6 101020 33
2010-05-11 05:35:46 51°18.89 2°54.474 12 323 7.6 101030 32
2010-05-11 05:35:50 51°18.897 2°54.491 11.4 324 7.6 101030 32
2010-05-11 05:35:54 51°18.905 2°54.509 12.5 325 7.6 101030 32
2010-05-11 05:36:00 51°18.916 2°54.535 12.1 322 7.6 101030 32
2010-05-11 05:36:06 51°18.926 2°54.562 12.7 322 7.6 101020 33
2010-05-11 05:36:10 51°18.934 2°54.579 10.9 324 7.6 101020 33
2010-05-11 05:36:14 51°18.942 2°54.597 11.6 323 7.6 101030 32
2010-05-11 05:36:20 51°18.953 2°54.623 11.1 325 7.6 101030 32
2010-05-11 05:36:26 51°18.964 2°54.65 11.6 323 7.6 101030 32
2010-05-11 05:36:30 51°18.972 2°54.667 12.7 323 7.6 101030 32
2010-05-11 05:36:34 51°18.978 2°54.685 12.5 323 7.6 101020 32
2010-05-11 05:36:40 51°18.99 2°54.711 14.7 324 7.6 101020 32
2010-05-11 05:36:45 51°18.999 2°54.733 14.4 323 7.6 101030 32
2010-05-11 05:36:50 51°19.008 2°54.755 12 323 7.6 101030 32
2010-05-11 05:36:54 51°19.016 2°54.772 12.9 323 7.6 101030 33
2010-05-11 05:37:00 51°19.027 2°54.798 12.7 326 7.6 101030 33
2010-05-11 05:37:05 51°19.036 2°54.82 11.9 326 7.6 101020 33
2010-05-11 05:37:10 51°19.045 2°54.842 12.4 327 7.6 101020 33
2010-05-11 05:37:14 51°19.053 2°54.859 11.4 330 7.6 101030 33
2010-05-11 05:37:20 51°19.064 2°54.885 12.8 329 7.6 101030 33
2010-05-11 05:37:25 51°19.073 2°54.907 12.5 328 7.6 101020 33
2010-05-11 05:37:30 51°19.082 2°54.929 11.4 327 7.6 101020 33
2010-05-11 05:37:34 51°19.089 2°54.947 12.4 327 7.7 101030 32
2010-05-11 05:37:40 51°19.099 2°54.975 11.6 328 7.7 101030 32
2010-05-11 05:37:46 51°19.109 2°55.002 11.4 329 7.7 101050 33
2010-05-11 05:37:50 51°19.116 2°55.02 12.2 327 7.7 101050 33
2010-05-11 05:37:56 51°19.125 2°55.048 12.8 327 7.7 101020 32
2010-05-11 05:38:00 51°19.132 2°55.066 11.7 328 7.7 101020 32
2010-05-11 05:38:06 51°19.141 2°55.095 12.6 328 7.7 101040 30
2010-05-11 05:38:10 51°19.147 2°55.113 12.5 327 7.7 101040 30
2010-05-11 05:38:15 51°19.155 2°55.136 11.4 328 7.7 101040 33
2010-05-11 05:38:21 51°19.164 2°55.164 12.9 329 7.7 101040 33
2010-05-11 05:38:26 51°19.172 2°55.188 12.3 329 7.6 101030 33
2010-05-11 05:38:30 51°19.179 2°55.206 13.3 330 7.6 101030 33
2010-05-11 05:38:35 51°19.186 2°55.23 12.3 327 7.6 101030 32
2010-05-11 05:38:41 51°19.196 2°55.258 13.5 330 7.6 101030 32
2010-05-11 05:38:46 51°19.204 2°55.281 12.7 329 7.7 101030 33
2010-05-11 05:38:50 51°19.209 2°55.301 13.1 325 7.7 101030 33
2010-05-11 05:38:55 51°19.218 2°55.324 14.1 329 7.7 101030 32
2010-05-11 05:39:00 51°19.224 2°55.348 14.3 328 7.7 101030 32
2010-05-11 05:39:05 51°19.231 2°55.372 13.6 329 7.7 101030 33
2010-05-11 05:39:10 51°19.238 2°55.396 13 328 7.7 101030 33
2010-05-11 05:39:14 51°19.244 2°55.415 12.2 329 7.7 101030 33
2010-05-11 05:39:20 51°19.251 2°55.445 12.2 328 7.7 101030 33
2010-05-11 05:39:25 51°19.258 2°55.469 12.3 329 7.7 101030 33
2010-05-11 05:39:30 51°19.264 2°55.494 13.2 329 7.7 101030 33
2010-05-11 05:39:34 51°19.269 2°55.513 12.8 329 7.7 101040 33
2010-05-11 05:39:40 51°19.277 2°55.543 13.4 327 7.7 101040 33
2010-05-11 05:39:45 51°19.283 2°55.567 12.5 328 7.7 101040 32
2010-05-11 05:39:50 51°19.289 2°55.592 12.4 328 7.7 101040 32
2010-05-11 05:39:54 51°19.294 2°55.612 11.7 329 7.7 101030 32
2010-05-11 05:40:00 51°19.302 2°55.642 11.7 329 7.7 101030 32
2010-05-11 05:40:06 51°19.309 2°55.672 12.2 331 7.6 101040 33
2010-05-11 05:40:10 51°19.315 2°55.691 13.5 331 7.6 101040 33
2010-05-11 05:40:14 51°19.32 2°55.711 12.3 335 7.6 101030 32
2010-05-11 05:40:20 51°19.328 2°55.74 11.8 332 7.6 101030 32
2010-05-11 05:40:26 51°19.335 2°55.769 12.7 333 7.6 101040 33
2010-05-11 05:40:30 51°19.34 2°55.789 13.5 331 7.6 101040 33
2010-05-11 05:40:34 51°19.346 2°55.809 13.5 332 7.6 101040 32
2010-05-11 05:40:40 51°19.353 2°55.839 13.7 333 7.6 101040 32
2010-05-11 05:40:46 51°19.361 2°55.868 13 331 7.7 101040 32
2010-05-11 05:40:50 51°19.367 2°55.887 12.4 332 7.7 101040 32
2010-05-11 05:40:54 51°19.372 2°55.907 12.7 330 7.7 101050 33
2010-05-11 05:41:00 51°19.38 2°55.936 12.2 331 7.7 101050 33
2010-05-11 05:41:06 51°19.387 2°55.966 11.2 330 7.7 101050 33
2010-05-11 05:41:10 51°19.393 2°55.985 13.5 330 7.7 101050 33
2010-05-11 05:41:14 51°19.398 2°56.005 14.3 332 7.6 101040 32
2010-05-11 05:41:20 51°19.406 2°56.034 13.6 332 7.6 101040 32
2010-05-11 05:41:25 51°19.412 2°56.059 13.2 332 7.6 101050 32
2010-05-11 05:41:30 51°19.419 2°56.084 12.9 332 7.6 101050 32
2010-05-11 05:41:34 51°19.424 2°56.104 12.3 332 7.6 101050 33
2010-05-11 05:41:40 51°19.432 2°56.133 12.5 331 7.6 101050 33
2010-05-11 05:41:45 51°19.439 2°56.157 12.7 333 7.6 101050 33
2010-05-11 05:41:50 51°19.445 2°56.181 13.7 330 7.6 101050 33
2010-05-11 05:41:54 51°19.45 2°56.201 12.3 332 7.6 101060 33
2010-05-11 05:42:00 51°19.458 2°56.23 11.7 331 7.6 101060 33
2010-05-11 05:42:05 51°19.465 2°56.254 11 331 7.6 101050 31
2010-05-11 05:42:10 51°19.472 2°56.279 11.5 332 7.6 101050 31
2010-05-11 05:42:14 51°19.477 2°56.299 12.1 331 7.6 101040 32
2010-05-11 05:42:20 51°19.486 2°56.328 11.4 330 7.6 101040 32
2010-05-11 05:42:26 51°19.494 2°56.357 12.2 330 7.6 101040 32
2010-05-11 05:42:30 51°19.499 2°56.376 12.1 326 7.6 101040 32
2010-05-11 05:42:34 51°19.504 2°56.396 10.9 328 7.6 101050 33
2010-05-11 05:42:40 51°19.512 2°56.426 12 329 7.6 101050 33
2010-05-11 05:42:46 51°19.52 2°56.454 13.9 330 7.7 101060 32
2010-05-11 05:42:50 51°19.525 2°56.474 12.2 329 7.7 101060 32
2010-05-11 05:42:54 51°19.53 2°56.493 14.2 328 7.7 101050 32
2010-05-11 05:43:00 51°19.538 2°56.523 12.9 328 7.7 101050 32
2010-05-11 05:43:06 51°19.546 2°56.552 13.1 330 7.7 101050 32
2010-05-11 05:43:10 51°19.552 2°56.571 13.3 329 7.7 101050 32
2010-05-11 05:43:14 51°19.557 2°56.59 12.6 330 7.7 101040 32
2010-05-11 05:43:20 51°19.565 2°56.62 12.2 328 7.7 101040 32
2010-05-11 05:43:26 51°19.573 2°56.649 12.7 330 7.6 101040 31
2010-05-11 05:43:30 51°19.578 2°56.669 13.4 331 7.6 101040 31
2010-05-11 05:43:34 51°19.584 2°56.688 13.1 330 7.6 101030 32
2010-05-11 05:43:40 51°19.591 2°56.717 12 332 7.6 101030 32
2010-05-11 05:43:45 51°19.599 2°56.742 12.2 330 7.6 101040 31
2010-05-11 05:43:50 51°19.605 2°56.766 11.4 329 7.6 101040 31
2010-05-11 05:43:54 51°19.611 2°56.785 11.6 329 7.6 101040 32
2010-05-11 05:44:00 51°19.619 2°56.814 11.6 330 7.6 101040 32
2010-05-11 05:44:05 51°19.626 2°56.838 11.5 329 7.5 101040 32
2010-05-11 05:44:10 51°19.632 2°56.863 12.7 331 7.5 101040 32
2010-05-11 05:44:14 51°19.638 2°56.883 12.6 331 7.6 101040 32
2010-05-11 05:44:20 51°19.646 2°56.912 13.2 330 7.6 101040 32
2010-05-11 05:44:26 51°19.654 2°56.94 12.2 331 7.6 101050 32
2010-05-11 05:44:30 51°19.66 2°56.96 13.7 329 7.6 101050 32
2010-05-11 05:44:34 51°19.665 2°56.979 14.2 330 7.6 101050 33
2010-05-11 05:44:40 51°19.673 2°57.008 13.5 333 7.6 101050 33
2010-05-11 05:44:46 51°19.681 2°57.037 13.5 330 7.6 101050 32
2010-05-11 05:44:50 51°19.687 2°57.057 13.3 333 7.6 101050 32
2010-05-11 05:44:54 51°19.691 2°57.077 11.8 331 7.6 101060 31
2010-05-11 05:45:00 51°19.7 2°57.105 11.4 332 7.6 101060 31
2010-05-11 05:45:06 51°19.707 2°57.134 11.9 332 7.7 101050 33
2010-05-11 05:45:10 51°19.713 2°57.153 12.4 331 7.7 101050 33
2010-05-11 05:45:14 51°19.718 2°57.173 11.3 333 7.7 101050 33
2010-05-11 05:45:20 51°19.727 2°57.201 12.5 333 7.7 101050 33
2010-05-11 05:45:26 51°19.734 2°57.231 12.7 331 7.7 101060 33
2010-05-11 05:45:30 51°19.74 2°57.25 12.5 334 7.7 101060 33
2010-05-11 05:45:34 51°19.744 2°57.27 13.1 331 7.7 101060 32
2010-05-11 05:45:40 51°19.753 2°57.298 12.3 334 7.7 101060 32
2010-05-11 05:45:46 51°19.761 2°57.327 12.8 331 7.7 101050 32
2010-05-11 05:45:50 51°19.766 2°57.346 14.1 334 7.7 101050 32
2010-05-11 05:45:54 51°19.771 2°57.365 13.7 333 7.7 101050 32
2010-05-11 05:46:00 51°19.78 2°57.393 14.2 333 7.7 101050 32
2010-05-11 05:46:05 51°19.786 2°57.417 14.5 333 7.7 101050 31
2010-05-11 05:46:10 51°19.793 2°57.441 16.5 333 7.7 101050 31
2010-05-11 05:46:14 51°19.799 2°57.46 12.3 332 7.7 101060 33
2010-05-11 05:46:20 51°19.807 2°57.489 12.6 330 7.7 101060 33
2010-05-11 05:46:25 51°19.814 2°57.513 11.9 330 7.7 101060 33
2010-05-11 05:46:30 51°19.82 2°57.537 13.1 331 7.7 101060 33
2010-05-11 05:46:34 51°19.825 2°57.557 13.7 330 7.7 101050 32
2010-05-11 05:46:40 51°19.833 2°57.585 11.5 330 7.7 101050 32
2010-05-11 05:46:46 51°19.841 2°57.615 12.3 331 7.8 101060 32
2010-05-11 05:46:50 51°19.847 2°57.634 13 328 7.8 101060 32
2010-05-11 05:46:56 51°19.854 2°57.663 12.4 330 7.8 101060 33
2010-05-11 05:47:00 51°19.861 2°57.682 12.4 329 7.8 101060 33
2010-05-11 05:47:06 51°19.868 2°57.711 11.8 329 7.8 101050 33
2010-05-11 05:47:10 51°19.874 2°57.73 12.2 329 7.8 101050 33
2010-05-11 05:47:14 51°19.879 2°57.75 12.6 326 7.8 101060 32
2010-05-11 05:47:20 51°19.887 2°57.779 13 328 7.8 101060 32
2010-05-11 05:47:26 51°19.896 2°57.808 13.7 329 7.8 101060 33
2010-05-11 05:47:30 51°19.901 2°57.827 13.4 329 7.8 101060 33
2010-05-11 05:47:34 51°19.906 2°57.846 13.4 329 7.8 101050 32
2010-05-11 05:47:40 51°19.915 2°57.875 12.7 329 7.8 101050 32
2010-05-11 05:47:46 51°19.923 2°57.905 12.2 329 7.7 101040 32
2010-05-11 05:47:50 51°19.928 2°57.924 13.2 329 7.7 101040 32
2010-05-11 05:47:54 51°19.934 2°57.943 12.5 329 7.7 101050 32
2010-05-11 05:48:00 51°19.942 2°57.972 13.7 328 7.7 101050 32
2010-05-11 05:48:05 51°19.949 2°57.996 13.2 327 7.7 101060 31
2010-05-11 05:48:10 51°19.956 2°58.02 13.6 327 7.7 101060 31
2010-05-11 05:48:14 51°19.962 2°58.039 13.5 328 7.7 101050 33
2010-05-11 05:48:20 51°19.97 2°58.068 12.5 330 7.7 101050 33
2010-05-11 05:48:25 51°19.977 2°58.092 12.4 329 7.8 101040 32
2010-05-11 05:48:30 51°19.984 2°58.116 13.4 329 7.8 101040 32
2010-05-11 05:48:34 51°19.989 2°58.135 13.4 328 7.8 101050 33
2010-05-11 05:48:40 51°19.996 2°58.164 14.3 326 7.8 101050 33
2010-05-11 05:48:45 51°20.004 2°58.188 13.6 327 7.7 101050 31
2010-05-11 05:48:50 51°20.01 2°58.212 14.5 331 7.7 101050 31
2010-05-11 05:48:54 51°20.015 2°58.231 13.7 332 7.8 101050 33
2010-05-11 05:49:00 51°20.023 2°58.26 13.9 329 7.8 101050 33
2010-05-11 05:49:06 51°20.03 2°58.289 13.8 332 7.8 101040 32
2010-05-11 05:49:10 51°20.036 2°58.308 13.3 330 7.8 101040 32
2010-05-11 05:49:16 51°20.043 2°58.337 13.2 328 7.8 101040 31
2010-05-11 05:49:20 51°20.049 2°58.356 12.1 329 7.8 101040 31
2010-05-11 05:49:26 51°20.057 2°58.385 12.1 329 7.8 101060 32
2010-05-11 05:49:30 51°20.063 2°58.404 12.8 328 7.8 101060 32
2010-05-11 05:49:34 51°20.068 2°58.423 13.3 330 7.7 101040 31
2010-05-11 05:49:40 51°20.077 2°58.451 13.5 331 7.7 101040 31
2010-05-11 05:49:46 51°20.084 2°58.481 13.5 331 7.7 101030 32
2010-05-11 05:49:50 51°20.09 2°58.499 13.5 331 7.7 101030 32
2010-05-11 05:49:54 51°20.095 2°58.519 12.8 330 7.7 101050 32
2010-05-11 05:50:00 51°20.103 2°58.548 13.4 283 7.7 101050 32
2010-05-11 05:50:06 51°20.111 2°58.576 12.9 330 7.8 101060 33
2010-05-11 05:50:10 51°20.116 2°58.595 13.1 329 7.8 101060 33
2010-05-11 05:50:14 51°20.122 2°58.614 13.7 329 7.7 101070 32
2010-05-11 05:50:20 51°20.13 2°58.643 13.8 331 7.7 101070 32
2010-05-11 05:50:25 51°20.137 2°58.667 13 332 7.7 101060 31
2010-05-11 05:50:30 51°20.144 2°58.69 13.2 332 7.7 101060 31
2010-05-11 05:50:34 51°20.149 2°58.709 14.1 334 7.7 101060 31
2010-05-11 05:50:40 51°20.158 2°58.738 13.8 333 7.7 101060 31
2010-05-11 05:50:45 51°20.164 2°58.762 13.9 332 7.7 101060 31
2010-05-11 05:50:50 51°20.171 2°58.785 14 332 7.7 101060 31
2010-05-11 05:50:54 51°20.176 2°58.805 14.5 333 7.7 101070 32
2010-05-11 05:51:00 51°20.184 2°58.833 13.2 333 7.7 101070 32
2010-05-11 05:51:06 51°20.192 2°58.862 12.7 333 7.8 101060 31
2010-05-11 05:51:10 51°20.197 2°58.881 14.6 330 7.8 101060 31
2010-05-11 05:51:14 51°20.202 2°58.9 14.4 329 7.7 101060 32
2010-05-11 05:51:20 51°20.21 2°58.929 13.7 331 7.7 101060 32
2010-05-11 05:51:26 51°20.218 2°58.958 13.8 331 7.7 101050 30
2010-05-11 05:51:30 51°20.224 2°58.976 13.2 330 7.7 101050 30
2010-05-11 05:51:34 51°20.229 2°58.996 11.8 332 7.7 101080 32
2010-05-11 05:51:40 51°20.237 2°59.025 13.4 330 7.7 101080 32
2010-05-11 05:51:46 51°20.246 2°59.053 12.3 332 7.7 101070 31
2010-05-11 05:51:50 51°20.251 2°59.073 12.2 330 7.7 101070 31
2010-05-11 05:51:54 51°20.256 2°59.092 12.8 332 7.7 101060 31
2010-05-11 05:52:00 51°20.265 2°59.12 12.4 278 7.7 101060 31
2010-05-11 05:52:06 51°20.273 2°59.148 12 333 7.7 101070 31
2010-05-11 05:52:10 51°20.278 2°59.168 11.7 331 7.7 101070 31
2010-05-11 05:52:14 51°20.284 2°59.187 12.7 332 7.8 101050 33
2010-05-11 05:52:20 51°20.292 2°59.216 11.7 331 7.8 101050 33
2010-05-11 05:52:26 51°20.301 2°59.244 12.6 332 7.8 101080 32
2010-05-11 05:52:30 51°20.306 2°59.264 12.3 332 7.8 101080 32
2010-05-11 05:52:34 51°20.311 2°59.283 12.9 328 7.8 101070 33
2010-05-11 05:52:40 51°20.319 2°59.312 13.1 330 7.8 101070 33
2010-05-11 05:52:45 51°20.327 2°59.336 13.1 330 7.8 101070 32
2010-05-11 05:52:50 51°20.333 2°59.36 13.5 333 7.8 101070 32
2010-05-11 05:52:54 51°20.338 2°59.379 14.6 331 7.8 101070 32
2010-05-11 05:53:00 51°20.346 2°59.408 13.4 330 7.8 101070 32
2010-05-11 05:53:05 51°20.352 2°59.433 13.1 332 7.8 101070 33
2010-05-11 05:53:10 51°20.36 2°59.456 12.2 330 7.8 101070 33
2010-05-11 05:53:14 51°20.364 2°59.475 13 330 7.8 101060 32
2010-05-11 05:53:20 51°20.373 2°59.504 13.8 330 7.8 101060 32
2010-05-11 05:53:26 51°20.381 2°59.533 13.2 332 7.8 101070 33
2010-05-11 05:53:30 51°20.387 2°59.552 13 330 7.8 101070 33
2010-05-11 05:53:36 51°20.395 2°59.58 12.4 329 7.8 101070 32
2010-05-11 05:53:40 51°20.4 2°59.599 12.6 332 7.8 101070 32
2010-05-11 05:53:46 51°20.408 2°59.628 12.5 330 7.8 101070 33
2010-05-11 05:53:50 51°20.414 2°59.647 13 332 7.8 101070 33
2010-05-11 05:53:54 51°20.419 2°59.666 13.4 334 7.8 101070 33
2010-05-11 05:54:00 51°20.428 2°59.694 12.4 332 7.8 101070 33
2010-05-11 05:54:06 51°20.436 2°59.723 14.2 332 7.8 101070 31
2010-05-11 05:54:10 51°20.442 2°59.741 13.1 333 7.8 101070 31
2010-05-11 05:54:14 51°20.447 2°59.76 12.3 331 7.8 101070 32
2010-05-11 05:54:21 51°20.457 2°59.793 13.2 332 7.8 101070 32
2010-05-11 05:54:26 51°20.464 2°59.817 13 331 7.8 101070 32
2010-05-11 05:54:30 51°20.469 2°59.837 13.1 330 7.8 101070 32
2010-05-11 05:54:34 51°20.474 2°59.856 13.2 328 7.8 101060 32
2010-05-11 05:54:40 51°20.482 2°59.884 13.1 329 7.8 101060 32
2010-05-11 05:54:45 51°20.489 2°59.908 11.4 329 7.8 101070 33
2010-05-11 05:54:50 51°20.495 2°59.933 10.9 332 7.8 101070 33
2010-05-11 05:54:54 51°20.5 2°59.952 12.5 330 7.8 101070 32
2010-05-11 05:55:00 51°20.508 2°59.98 13.4 331 7.8 101070 32
2010-05-11 05:55:05 51°20.515 3°0.004 13.3 331 7.8 101080 32
2010-05-11 05:55:10 51°20.522 3°0.028 13.1 331 7.8 101080 32
2010-05-11 05:55:14 51°20.528 3°0.047 13 330 7.8 101070 33
2010-05-11 05:55:20 51°20.536 3°0.075 13.4 333 7.8 101070 33
2010-05-11 05:55:25 51°20.542 3°0.099 13.5 329 7.8 101080 32
2010-05-11 05:55:30 51°20.549 3°0.123 12.2 329 7.8 101080 32
2010-05-11 05:55:34 51°20.555 3°0.142 12.8 331 7.8 101080 32
2010-05-11 05:55:40 51°20.563 3°0.17 13.2 331 7.8 101080 32
2010-05-11 05:55:46 51°20.571 3°0.198 13.6 329 7.8 101070 32
2010-05-11 05:55:50 51°20.577 3°0.217 13.2 331 7.8 101070 32
2010-05-11 05:55:56 51°20.585 3°0.246 12.1 333 7.7 101080 32
2010-05-11 05:56:00 51°20.591 3°0.265 13.4 332 7.7 101080 32
2010-05-11 05:56:06 51°20.599 3°0.293 14.1 331 7.7 101070 32
2010-05-11 05:56:10 51°20.604 3°0.312 12.5 331 7.7 101070 32
2010-05-11 05:56:14 51°20.609 3°0.331 13.2 331 7.7 101070 33
2010-05-11 05:56:20 51°20.618 3°0.36 13.3 333 7.7 101070 33
2010-05-11 05:56:26 51°20.626 3°0.388 11.8 331 7.7 101080 33
2010-05-11 05:56:30 51°20.631 3°0.407 13.3 332 7.7 101080 33
2010-05-11 05:56:34 51°20.637 3°0.426 13.3 332 7.7 101080 33
2010-05-11 05:56:40 51°20.645 3°0.455 12 332 7.7 101080 33
2010-05-11 05:56:46 51°20.654 3°0.483 11.6 332 7.7 101070 30
2010-05-11 05:56:50 51°20.659 3°0.502 11.9 334 7.7 101070 30
2010-05-11 05:56:54 51°20.664 3°0.521 12.3 333 7.7 101080 32
2010-05-11 05:57:00 51°20.673 3°0.549 12.3 335 7.7 101080 32
2010-05-11 05:57:06 51°20.681 3°0.578 11.5 332 7.7 101070 32
2010-05-11 05:57:10 51°20.687 3°0.597 11.6 334 7.7 101070 32
2010-05-11 05:57:14 51°20.692 3°0.616 12.1 332 7.7 101080 32
2010-05-11 05:57:20 51°20.701 3°0.645 10.7 333 7.7 101080 32
2010-05-11 05:57:25 51°20.707 3°0.669 12 333 7.7 101080 32
2010-05-11 05:57:30 51°20.715 3°0.692 11.9 333 7.7 101080 32
2010-05-11 05:57:34 51°20.719 3°0.711 12.6 333 7.7 101080 33
2010-05-11 05:57:40 51°20.727 3°0.739 12 329 7.7 101080 33
2010-05-11 05:57:46 51°20.735 3°0.769 11.8 331 7.7 101070 33
2010-05-11 05:57:50 51°20.741 3°0.787 12.5 332 7.7 101070 33
2010-05-11 05:57:54 51°20.747 3°0.806 12.3 333 7.7 101080 33
2010-05-11 05:58:00 51°20.755 3°0.835 11 332 7.7 101080 33
2010-05-11 05:58:06 51°20.764 3°0.863 11.5 329 7.7 101070 32
2010-05-11 05:58:10 51°20.769 3°0.882 10.9 334 7.7 101070 32
2010-05-11 05:58:14 51°20.775 3°0.901 11.2 331 7.7 101080 32
2010-05-11 05:58:20 51°20.784 3°0.929 11.3 331 7.7 101080 32
2010-05-11 05:58:26 51°20.793 3°0.957 12 331 7.7 101080 32
2010-05-11 05:58:30 51°20.799 3°0.976 12.1 332 7.7 101080 32
2010-05-11 05:58:34 51°20.804 3°0.995 12 333 7.7 101070 32
2010-05-11 05:58:41 51°20.814 3°1.029 11.1 331 7.7 101070 32
2010-05-11 05:58:46 51°20.821 3°1.053 11.5 330 7.7 101080 33
2010-05-11 05:58:50 51°20.826 3°1.072 10.7 328 7.7 101080 33
2010-05-11 05:58:54 51°20.832 3°1.091 10.2 331 7.6 101090 31
2010-05-11 05:59:00 51°20.84 3°1.12 11.6 328 7.6 101090 31
2010-05-11 05:59:06 51°20.848 3°1.149 12 331 7.6 101080 33
2010-05-11 05:59:10 51°20.854 3°1.169 11.3 330 7.6 101080 33
2010-05-11 05:59:14 51°20.86 3°1.187 12.4 331 7.6 101070 32
2010-05-11 05:59:20 51°20.868 3°1.216 13.1 330 7.6 101070 32
2010-05-11 05:59:25 51°20.875 3°1.24 12.7 331 7.7 101080 32
2010-05-11 05:59:30 51°20.882 3°1.264 11.9 331 7.7 101080 32
2010-05-11 05:59:34 51°20.888 3°1.283 11.7 332 7.6 101080 33
2010-05-11 05:59:40 51°20.896 3°1.312 11.8 331 7.6 101080 33
2010-05-11 05:59:45 51°20.903 3°1.335 13 330 7.6 101080 33
2010-05-11 05:59:50 51°20.911 3°1.359 10.9 330 7.6 101080 33
2010-05-11 05:59:54 51°20.916 3°1.378 12.4 332 7.6 101080 33
2010-05-11 06:00:00 51°20.925 3°1.407 12.3 333 7.6 101080 33
2010-05-11 06:00:06 51°20.933 3°1.436 11.4 335 7.6 101090 33
2010-05-11 06:00:10 51°20.939 3°1.455 13 332 7.6 101090 33
2010-05-11 06:00:15 51°20.946 3°1.479 12.1 333 7.7 101080 32
2010-05-11 06:00:21 51°20.954 3°1.508 12.8 332 7.7 101080 32
2010-05-11 06:00:26 51°20.961 3°1.533 12.4 334 7.7 101070 32
2010-05-11 06:00:30 51°20.967 3°1.552 12.3 333 7.7 101070 32
2010-05-11 06:00:34 51°20.973 3°1.571 11 332 7.7 101070 32
2010-05-11 06:00:40 51°20.982 3°1.6 12.7 332 7.7 101070 32
2010-05-11 06:00:46 51°20.99 3°1.629 10.6 330 7.7 101080 33
2010-05-11 06:00:50 51°20.996 3°1.648 11.9 331 7.7 101080 33
2010-05-11 06:00:54 51°21.001 3°1.667 11.2 330 7.7 101080 32
2010-05-11 06:01:00 51°21.01 3°1.696 11.7 333 7.7 101080 32
2010-05-11 06:01:06 51°21.019 3°1.725 12.2 332 7.7 101080 32
2010-05-11 06:01:10 51°21.025 3°1.744 12.4 332 7.7 101080 32
2010-05-11 06:01:14 51°21.03 3°1.764 12.3 331 7.6 101080 32
2010-05-11 06:01:20 51°21.039 3°1.792 12 330 7.6 101080 32
2010-05-11 06:01:25 51°21.046 3°1.816 11.3 330 7.6 101080 32
2010-05-11 06:01:30 51°21.053 3°1.841 12 331 7.6 101080 32
2010-05-11 06:01:34 51°21.06 3°1.86 11.5 332 7.6 101070 32
2010-05-11 06:01:40 51°21.067 3°1.89 11 331 7.6 101070 32
2010-05-11 06:01:45 51°21.075 3°1.913 11 332 7.6 101080 32
2010-05-11 06:01:50 51°21.082 3°1.938 12.5 331 7.6 101080 32
2010-05-11 06:01:54 51°21.088 3°1.957 11.1 332 7.6 101070 33
2010-05-11 06:02:00 51°21.096 3°1.986 12.3 330 7.6 101070 33
2010-05-11 06:02:05 51°21.104 3°2.01 12.9 331 7.7 101080 32
2010-05-11 06:02:10 51°21.111 3°2.035 11.1 333 7.7 101080 32
2010-05-11 06:02:14 51°21.117 3°2.053 12.6 334 7.7 101090 33
2010-05-11 06:02:20 51°21.126 3°2.083 12 332 7.7 101090 33
2010-05-11 06:02:26 51°21.135 3°2.112 11.3 331 7.6 101080 32
2010-05-11 06:02:30 51°21.14 3°2.131 11.5 333 7.6 101080 32
2010-05-11 06:02:34 51°21.146 3°2.151 11.7 334 7.6 101080 32
2010-05-11 06:02:40 51°21.155 3°2.18 13 331 7.6 101080 32
2010-05-11 06:02:46 51°21.164 3°2.209 11.6 330 7.6 101070 33
2010-05-11 06:02:50 51°21.169 3°2.229 13.5 332 7.6 101070 33
2010-05-11 06:02:54 51°21.175 3°2.247 12.9 333 7.6 101080 32
2010-05-11 06:03:00 51°21.184 3°2.277 12.8 335 7.6 101080 32
2010-05-11 06:03:06 51°21.192 3°2.307 12.5 333 7.6 101070 32
2010-05-11 06:03:10 51°21.198 3°2.326 12.6 334 7.6 101070 32
2010-05-11 06:03:14 51°21.205 3°2.345 12.3 333 7.6 101080 32
2010-05-11 06:03:20 51°21.213 3°2.375 13 333 7.6 101080 32
2010-05-11 06:03:26 51°21.222 3°2.404 13.1 333 7.6 101080 32
2010-05-11 06:03:30 51°21.228 3°2.424 12.5 330 7.6 101080 32
2010-05-11 06:03:34 51°21.234 3°2.442 11.4 333 7.6 101070 32
2010-05-11 06:03:40 51°21.242 3°2.472 12.4 333 7.6 101070 32
2010-05-11 06:03:45 51°21.25 3°2.496 14 334 7.6 101070 32
2010-05-11 06:03:50 51°21.257 3°2.52 12.5 332 7.6 101070 32
2010-05-11 06:03:54 51°21.262 3°2.54 12.9 330 7.6 101070 33
2010-05-11 06:04:00 51°21.271 3°2.569 12.5 334 7.6 101070 33
2010-05-11 06:04:00 51°21.271 3°2.569 12.5 334 7.6 101070 33
2010-05-11 06:04:10 51°21.286 3°2.617 12 334 7.6 101070 33
2010-05-11 06:04:14 51°21.291 3°2.637 12.2 331 7.5 101070 33
2010-05-11 06:04:16 51°21.295 3°2.646 12.2 331 7.5 101070 33
2010-05-11 06:04:33 51°21.319 3°2.728 13.1 330 7.6 101060 33
2010-05-11 06:04:38 51°21.327 3°2.752 13.2 278 7.6 101060 33
2010-05-11 06:04:43 51°21.334 3°2.777 11.9 334 7.6 101080 31
2010-05-11 06:04:49 51°21.343 3°2.805 11.6 333 7.6 101080 31
2010-05-11 06:04:54 51°21.351 3°2.829 11.7 332 7.6 101080 32
2010-05-11 06:04:58 51°21.357 3°2.848 12.3 284 7.6 101080 32
2010-05-11 06:05:03 51°21.364 3°2.872 10.9 333 7.6 101080 32
2010-05-11 06:05:09 51°21.373 3°2.901 12.3 333 7.6 101080 32
2010-05-11 06:05:14 51°21.38 3°2.925 11.7 335 7.6 101080 33
2010-05-11 06:05:18 51°21.386 3°2.944 12.8 335 7.6 101080 33
2010-05-11 06:05:23 51°21.393 3°2.969 11.5 334 7.7 101080 33
2010-05-11 06:05:29 51°21.402 3°2.997 12.7 280 7.7 101080 33
2010-05-11 06:05:34 51°21.41 3°3.021 11.4 333 7.6 101080 33
2010-05-11 06:05:38 51°21.415 3°3.041 10.9 331 7.6 101080 33
2010-05-11 06:05:43 51°21.421 3°3.066 11.8 334 7.6 101080 32
2010-05-11 06:05:49 51°21.428 3°3.096 12.4 278 7.6 101080 32
2010-05-11 06:05:54 51°21.433 3°3.122 13 333 7.6 101070 33
2010-05-11 06:05:58 51°21.435 3°3.143 11.2 286 7.6 101070 33
2010-05-11 06:06:03 51°21.44 3°3.168 11.3 332 7.6 101070 34
2010-05-11 06:06:09 51°21.443 3°3.199 12.3 283 7.6 101070 34
2010-05-11 06:06:13 51°21.445 3°3.221 11.9 328 7.6 101080 32
2010-05-11 06:06:18 51°21.448 3°3.247 12.7 326 7.6 101080 32
2010-05-11 06:06:23 51°21.45 3°3.274 12.7 325 7.6 101070 33
2010-05-11 06:06:29 51°21.453 3°3.305 11.9 286 7.6 101070 33
2010-05-11 06:06:33 51°21.455 3°3.327 13.2 324 7.6 101080 32
2010-05-11 06:06:38 51°21.458 3°3.353 11.6 283 7.6 101080 32
2010-05-11 06:06:43 51°21.459 3°3.38 11.3 323 7.6 101070 32
2010-05-11 06:06:49 51°21.463 3°3.411 10.7 283 7.6 101070 32
2010-05-11 06:06:53 51°21.463 3°3.433 10.9 324 7.6 101060 32
2010-05-11 06:06:58 51°21.467 3°3.459 10.6 278 7.6 101060 32
2010-05-11 06:07:03 51°21.468 3°3.486 12.9 325 7.5 101070 32
2010-05-11 06:07:09 51°21.472 3°3.517 12.3 331 7.5 101070 32
2010-05-11 06:07:14 51°21.472 3°3.545 11.4 329 7.5 101060 32
2010-05-11 06:07:18 51°21.476 3°3.566 12 332 7.5 101060 32
2010-05-11 06:07:23 51°21.477 3°3.592 12.2 328 7.6 101070 31
2010-05-11 06:07:28 51°21.479 3°3.618 12.5 282 7.6 101070 31
2010-05-11 06:07:34 51°21.482 3°3.65 12.4 328 7.6 101050 33
2010-05-11 06:07:38 51°21.483 3°3.672 11.8 304 7.6 101050 33
2010-05-11 06:07:43 51°21.486 3°3.698 10.9 329 7.5 101060 33
2010-05-11 06:07:49 51°21.488 3°3.73 11.6 285 7.5 101060 33
2010-05-11 06:07:54 51°21.491 3°3.756 11.5 328 7.5 101040 33
2010-05-11 06:07:58 51°21.493 3°3.777 12.3 327 7.5 101040 33
2010-05-11 06:08:03 51°21.496 3°3.803 12.1 328 7.5 101060 33
2010-05-11 06:08:09 51°21.501 3°3.834 12.2 284 7.5 101060 33
2010-05-11 06:08:13 51°21.503 3°3.856 12.4 328 7.5 101070 32
2010-05-11 06:08:18 51°21.508 3°3.882 11.7 331 7.5 101070 32
2010-05-11 06:08:23 51°21.511 3°3.909 12.3 328 7.5 101050 33
2010-05-11 06:08:29 51°21.516 3°3.94 11.6 283 7.5 101050 33
2010-05-11 06:08:33 51°21.519 3°3.961 11.9 331 7.5 101060 32
2010-05-11 06:08:38 51°21.523 3°3.988 11.5 279 7.5 101060 32
2010-05-11 06:08:43 51°21.528 3°4.014 11.7 332 7.5 101060 32
2010-05-11 06:08:49 51°21.532 3°4.045 13.6 280 7.5 101060 32
2010-05-11 06:08:53 51°21.535 3°4.066 13.6 328 7.5 101060 32
2010-05-11 06:08:58 51°21.54 3°4.092 11.9 283 7.5 101060 32
2010-05-11 06:09:03 51°21.543 3°4.119 12.9 326 7.5 101050 32
2010-05-11 06:09:09 51°21.549 3°4.149 11.2 329 7.5 101050 32
2010-05-11 06:09:13 51°21.552 3°4.17 12.4 330 7.5 101060 33
2010-05-11 06:09:18 51°21.556 3°4.196 12.5 284 7.5 101060 33
2010-05-11 06:09:23 51°21.56 3°4.222 12.1 327 7.5 101050 33
2010-05-11 06:09:29 51°21.565 3°4.253 13.3 327 7.5 101050 33
2010-05-11 06:09:34 51°21.57 3°4.278 12.8 327 7.5 101050 32
2010-05-11 06:09:38 51°21.573 3°4.299 13 326 7.5 101050 32
2010-05-11 06:09:43 51°21.577 3°4.325 12.6 326 7.5 101050 33
2010-05-11 06:09:49 51°21.582 3°4.356 12.6 287 7.5 101050 33
2010-05-11 06:09:54 51°21.586 3°4.382 12.5 327 7.5 101040 32
2010-05-11 06:09:58 51°21.589 3°4.403 11.4 328 7.5 101040 32
2010-05-11 06:10:03 51°21.593 3°4.429 12.2 328 7.5 101040 30
2010-05-11 06:10:09 51°21.599 3°4.46 11.8 287 7.5 101040 30
2010-05-11 06:10:14 51°21.602 3°4.487 12.7 327 7.5 101030 32
2010-05-11 06:10:18 51°21.606 3°4.507 13 329 7.5 101030 32
2010-05-11 06:10:23 51°21.61 3°4.533 11.9 329 7.5 101040 33
2010-05-11 06:10:29 51°21.615 3°4.564 12.2 284 7.5 101040 33
2010-05-11 06:10:33 51°21.619 3°4.585 10.7 329 7.5 101050 33
2010-05-11 06:10:38 51°21.623 3°4.611 11 330 7.5 101050 33
2010-05-11 06:10:43 51°21.627 3°4.637 12.6 329 7.5 101050 32
2010-05-11 06:10:49 51°21.632 3°4.668 13.9 285 7.5 101050 32
2010-05-11 06:10:53 51°21.636 3°4.689 13.3 329 7.5 101040 33
2010-05-11 06:10:58 51°21.639 3°4.715 11.8 282 7.5 101040 33
2010-05-11 06:11:03 51°21.644 3°4.74 13 329 7.5 101050 33
2010-05-11 06:11:09 51°21.648 3°4.772 12.4 278 7.5 101050 33
2010-05-11 06:11:13 51°21.653 3°4.793 13.2 328 7.5 101050 33
2010-05-11 06:11:18 51°21.656 3°4.819 12.5 287 7.5 101050 33
2010-05-11 06:11:23 51°21.661 3°4.844 13.8 329 7.5 101030 33
2010-05-11 06:11:29 51°21.665 3°4.876 12.4 327 7.5 101030 33
2010-05-11 06:11:34 51°21.671 3°4.901 12.8 330 7.5 101030 33
2010-05-11 06:11:38 51°21.672 3°4.922 12.7 285 7.5 101030 33
2010-05-11 06:11:43 51°21.678 3°4.947 12.2 327 7.4 101030 32
2010-05-11 06:11:49 51°21.683 3°4.979 12.6 327 7.4 101030 32
2010-05-11 06:11:54 51°21.688 3°5.004 11.3 326 7.4 101040 33
2010-05-11 06:11:58 51°21.69 3°5.025 12 279 7.4 101040 33
2010-05-11 06:12:03 51°21.695 3°5.051 11.7 327 7.5 101040 32
2010-05-11 06:12:08 51°21.699 3°5.077 13 284 7.5 101040 32
2010-05-11 06:12:13 51°21.703 3°5.103 12.1 330 7.5 101040 32
2010-05-11 06:12:18 51°21.707 3°5.129 12.8 329 7.5 101040 32
2010-05-11 06:12:23 51°21.712 3°5.154 12 329 7.5 101040 32
2010-05-11 06:12:28 51°21.716 3°5.18 12.5 328 7.5 101040 32
2010-05-11 06:12:34 51°21.721 3°5.211 12.7 326 7.5 101050 32
2010-05-11 06:12:38 51°21.724 3°5.231 12.8 328 7.5 101050 32
2010-05-11 06:12:43 51°21.729 3°5.257 13.4 328 7.5 101040 32
2010-05-11 06:12:48 51°21.733 3°5.283 12.4 329 7.5 101040 32
2010-05-11 06:12:53 51°21.737 3°5.308 13 327 7.5 101050 33
2010-05-11 06:12:58 51°21.742 3°5.334 11.5 283 7.5 101050 33
2010-05-11 06:13:03 51°21.744 3°5.36 13.5 324 7.5 101040 33
2010-05-11 06:13:09 51°21.75 3°5.39 12.6 282 7.5 101040 33
2010-05-11 06:13:13 51°21.752 3°5.412 12.9 325 7.5 101040 33
2010-05-11 06:13:18 51°21.758 3°5.437 11.1 286 7.5 101040 33
2010-05-11 06:13:23 51°21.761 3°5.462 11.5 327 7.5 101040 32
2010-05-11 06:13:29 51°21.766 3°5.493 11.4 281 7.5 101040 32
2010-05-11 06:13:33 51°21.77 3°5.514 11.5 330 7.5 101040 33
2010-05-11 06:13:38 51°21.773 3°5.54 12.3 327 7.5 101040 33
2010-05-11 06:13:43 51°21.779 3°5.565 12 330 7.5 101040 33
2010-05-11 06:13:48 51°21.781 3°5.591 13.4 327 7.5 101040 33
2010-05-11 06:13:54 51°21.787 3°5.621 13.4 331 7.5 101040 33
2010-05-11 06:13:58 51°21.789 3°5.643 12.8 327 7.5 101040 33
2010-05-11 06:14:03 51°21.795 3°5.668 10.9 328 7.6 101030 33
2010-05-11 06:14:08 51°21.798 3°5.694 11.1 327 7.6 101030 33
2010-05-11 06:14:14 51°21.804 3°5.724 11.7 327 7.6 101050 32
2010-05-11 06:14:18 51°21.806 3°5.745 11.1 304 7.6 101050 32
2010-05-11 06:14:22 51°21.81 3°5.765 12.1 325 7.6 101030 32
2010-05-11 06:14:28 51°21.814 3°5.796 11.4 281 7.6 101030 32
2010-05-11 06:14:34 51°21.82 3°5.827 12.7 326 7.6 101040 32
2010-05-11 06:14:38 51°21.822 3°5.848 11.1 326 7.6 101040 32
2010-05-11 06:14:43 51°21.826 3°5.874 12.1 323 7.6 101040 33
2010-05-11 06:14:48 51°21.831 3°5.899 11.6 278 7.6 101040 33
2010-05-11 06:14:53 51°21.834 3°5.925 11.2 328 7.6 101040 33
2010-05-11 06:14:58 51°21.839 3°5.951 11.6 283 7.6 101040 33
2010-05-11 06:15:03 51°21.843 3°5.976 11.8 329 7.6 101040 32
2010-05-11 06:15:08 51°21.847 3°6.002 12.1 305 7.6 101040 32
2010-05-11 06:15:14 51°21.853 3°6.033 13.2 325 7.6 101040 32
2010-05-11 06:15:18 51°21.855 3°6.054 11.9 302 7.6 101040 32
2010-05-11 06:15:23 51°21.86 3°6.079 12.7 327 7.6 101040 31
2010-05-11 06:15:28 51°21.863 3°6.105 13 324 7.6 101040 31
2010-05-11 06:15:34 51°21.87 3°6.136 12.2 325 7.7 101050 33
2010-05-11 06:15:38 51°21.872 3°6.157 12.4 285 7.7 101050 33
2010-05-11 06:15:42 51°21.875 3°6.177 12.5 325 7.7 101030 33
2010-05-11 06:15:48 51°21.88 3°6.208 11.6 304 7.7 101030 33
2010-05-11 06:15:54 51°21.884 3°6.24 12.6 324 7.6 101040 33
2010-05-11 06:15:58 51°21.888 3°6.26 12.7 284 7.6 101040 33
2010-05-11 06:16:03 51°21.891 3°6.286 11.9 324 7.6 101020 33
2010-05-11 06:16:09 51°21.897 3°6.317 11.1 278 7.6 101020 33
2010-05-11 06:16:13 51°21.9 3°6.338 12.5 326 7.6 101040 33
2010-05-11 06:16:18 51°21.905 3°6.364 11.6 328 7.6 101040 33
2010-05-11 06:16:23 51°21.908 3°6.39 12.3 327 7.6 101030 33
2010-05-11 06:16:28 51°21.913 3°6.416 13.3 286 7.6 101030 33
2010-05-11 06:16:34 51°21.918 3°6.447 12.3 329 7.5 101040 32
2010-05-11 06:16:38 51°21.921 3°6.468 11.5 327 7.5 101040 32
2010-05-11 06:16:43 51°21.926 3°6.494 13.4 328 7.6 101030 32
2010-05-11 06:16:48 51°21.929 3°6.52 11.6 283 7.6 101030 32
2010-05-11 06:16:54 51°21.935 3°6.551 11.8 329 7.5 101030 33
2010-05-11 06:16:58 51°21.937 3°6.573 12.7 278 7.5 101030 33
2010-05-11 06:17:02 51°21.942 3°6.593 12.5 329 7.5 101040 32
2010-05-11 06:17:08 51°21.945 3°6.625 12.4 286 7.5 101040 32
2010-05-11 06:17:13 51°21.95 3°6.651 12 328 7.6 101040 32
2010-05-11 06:17:18 51°21.954 3°6.677 10.9 327 7.6 101040 32
2010-05-11 06:17:23 51°21.959 3°6.703 11 329 7.5 101020 32
2010-05-11 06:17:29 51°21.964 3°6.734 11.7 283 7.5 101020 32
2010-05-11 06:17:33 51°21.967 3°6.755 13.4 329 7.5 101040 33
2010-05-11 06:17:38 51°21.971 3°6.781 12.9 328 7.5 101040 33
2010-05-11 06:17:43 51°21.975 3°6.807 11.8 329 7.5 101040 32
2010-05-11 06:17:48 51°21.979 3°6.833 12.3 329 7.5 101040 32
2010-05-11 06:17:53 51°21.983 3°6.859 12.5 327 7.5 101050 32
2010-05-11 06:17:58 51°21.988 3°6.885 12.8 -999 7.5 101050 32
2010-05-11 06:18:03 51°21.991 3°6.911 13 327 7.5 101050 31
2010-05-11 06:18:08 51°21.996 3°6.937 11.9 328 7.5 101050 31
2010-05-11 06:18:14 51°22.001 3°6.969 12.4 327 7.5 101040 32
2010-05-11 06:18:18 51°22.005 3°6.989 11.8 328 7.5 101040 32
2010-05-11 06:18:23 51°22.008 3°7.015 11.9 329 7.5 101050 32
2010-05-11 06:18:29 51°22.014 3°7.047 13.2 327 7.5 101050 32
2010-05-11 06:18:34 51°22.017 3°7.073 11.7 328 7.5 101050 33
2010-05-11 06:18:38 51°22.02 3°7.094 11.6 283 7.5 101050 33
2010-05-11 06:18:43 51°22.025 3°7.12 12.1 329 7.5 101030 33
2010-05-11 06:18:48 51°22.029 3°7.146 12 281 7.5 101030 33
2010-05-11 06:18:54 51°22.034 3°7.178 12.5 328 7.5 101040 33
2010-05-11 06:18:58 51°22.038 3°7.199 11 327 7.5 101040 33
2010-05-11 06:19:03 51°22.042 3°7.225 11.7 326 7.5 101040 33
2010-05-11 06:19:08 51°22.047 3°7.251 11.6 282 7.5 101040 33
2010-05-11 06:19:14 51°22.051 3°7.282 13.3 325 7.5 101050 32
2010-05-11 06:19:18 51°22.055 3°7.303 12.2 330 7.5 101050 32
2010-05-11 06:19:23 51°22.058 3°7.33 11.6 328 7.5 101040 33
2010-05-11 06:19:29 51°22.065 3°7.361 12.4 284 7.5 101040 33
2010-05-11 06:19:33 51°22.068 3°7.382 12.2 329 7.5 101040 33
2010-05-11 06:19:38 51°22.072 3°7.408 12.9 282 7.5 101040 33
2010-05-11 06:19:43 51°22.077 3°7.434 12.3 329 7.5 101040 32
2010-05-11 06:19:49 51°22.082 3°7.466 12.1 279 7.5 101040 32
2010-05-11 06:19:53 51°22.085 3°7.486 10.7 328 7.5 101050 33
2010-05-11 06:19:58 51°22.089 3°7.513 12.1 -999 7.5 101050 33
2010-05-11 06:20:03 51°22.094 3°7.539 12.1 329 7.5 101040 33
2010-05-11 06:20:09 51°22.098 3°7.57 11.5 278 7.5 101040 33
2010-05-11 06:20:13 51°22.101 3°7.591 12.6 327 7.5 101040 33
2010-05-11 06:20:18 51°22.105 3°7.617 14 283 7.5 101040 33
2010-05-11 06:20:23 51°22.11 3°7.644 11.9 328 7.5 101030 32
2010-05-11 06:20:29 51°22.114 3°7.675 11.7 279 7.5 101030 32
2010-05-11 06:20:33 51°22.118 3°7.696 12.7 328 7.5 101040 32
2010-05-11 06:20:38 51°22.122 3°7.722 12.8 278 7.5 101040 32
2010-05-11 06:20:43 51°22.126 3°7.749 12 326 7.5 101030 30
2010-05-11 06:20:48 51°22.131 3°7.775 11.2 278 7.5 101030 30
2010-05-11 06:20:53 51°22.134 3°7.801 12.1 327 7.5 101040 33
2010-05-11 06:20:58 51°22.14 3°7.827 13.1 282 7.5 101040 33
2010-05-11 06:21:03 51°22.142 3°7.853 12.3 324 7.5 101040 32
2010-05-11 06:21:08 51°22.148 3°7.879 12.9 284 7.5 101040 32
2010-05-11 06:21:14 51°22.152 3°7.91 12.8 327 7.5 101050 33
2010-05-11 06:21:18 51°22.156 3°7.931 11.9 329 7.5 101050 33
2010-05-11 06:21:23 51°22.16 3°7.957 11.6 329 7.5 101040 32
2010-05-11 06:21:29 51°22.165 3°7.988 12.5 283 7.5 101040 32
2010-05-11 06:21:33 51°22.168 3°8.009 12 327 7.5 101030 33
2010-05-11 06:21:38 51°22.172 3°8.033 12.6 330 7.5 101030 33
2010-05-11 06:21:43 51°22.176 3°8.055 10.9 330 7.5 101040 33
2010-05-11 06:21:49 51°22.18 3°8.081 10.5 283 7.5 101040 33
2010-05-11 06:21:53 51°22.182 3°8.096 10.9 329 7.5 101040 33
2010-05-11 06:21:58 51°22.185 3°8.115 10.7 -999 7.5 101040 33
2010-05-11 06:22:03 51°22.188 3°8.132 10.4 330 7.5 101040 33
2010-05-11 06:22:09 51°22.191 3°8.151 10.8 284 7.5 101040 33
2010-05-11 06:22:13 51°22.195 3°8.162 10.8 332 7.5 101050 31
2010-05-11 06:22:18 51°22.198 3°8.176 9.3 279 7.5 101050 31
2010-05-11 06:22:23 51°22.203 3°8.188 8.8 335 7.5 101060 32
2010-05-11 06:22:29 51°22.208 3°8.202 8.9 285 7.5 101060 32
2010-05-11 06:22:33 51°22.212 3°8.21 8.7 336 7.5 101050 31
2010-05-11 06:22:38 51°22.217 3°8.22 8.6 279 7.5 101050 31
2010-05-11 06:22:43 51°22.222 3°8.231 9.5 339 7.5 101060 32
2010-05-11 06:22:49 51°22.229 3°8.243 9.1 285 7.5 101060 32
2010-05-11 06:22:53 51°22.233 3°8.251 9.6 334 7.5 101060 32
2010-05-11 06:22:58 51°22.24 3°8.262 9.7 284 7.5 101060 32